Terminal Aerodrome Forecast
Issued by NWS

Home | Current Version | Previous Version | Text Only | Print | Product List | Glossary On
Versions: 1 2 3 4 5 6 7 8 9 10 11 12 13 14 15 16 17 18
000
FTUS43 KIND 280225 AAB
TAFLAF
TAF AMD
KLAF 280225Z 2802/2824 02007KT P6SM VCSH SCT006 BKN015
      TEMPO 2802/2804 12006KT 3SM -RA BR BKN006
     FM280500 02007KT P6SM OVC015
     FM281400 36007KT P6SM BKN008
     FM281900 02008KT P6SM BKN020
      AMD LTD TO CLD VIS AND WIND TIL 281300=

USA.gov is the U.S. government's official web portal to all federal, state and local government web resources and services.